Time;durP1;ratioP1;P1;durP2;ratioP2;P2;SDS_P1;SDS_P2;PMS_P1;PMS_P2;Temp;Humidity;BMP_temperature;BMP_pressure;BME280_temperature;BME280_humidity;BME280_pressure;Samples;Min_cycle;Max_cycle;Signal;HPM_P1;HPM_P2
2021/12/19 00:00:51;;;;;;;18.15;5.60;;;;;;;;;;5002866;28;20057;-52
2021/12/19 00:08:58;;;;;;;40.42;6.90;;;;;;;;;;5002563;28;20394;-48
2021/12/19 00:11:26;;;;;;;48.67;8.05;;;;;;;;;;4993178;28;20031;-47
2021/12/19 00:13:54;;;;;;;34.63;6.28;;;;;;;;;;5005092;28;20030;-54
2021/12/19 00:16:21;;;;;;;20.92;4.10;;;;;;;;;;5002620;28;20030;-50
2021/12/19 00:18:50;;;;;;;21.52;4.20;;;;;;;;;;5001979;28;20479;-46
2021/12/19 00:21:18;;;;;;;13.45;3.78;;;;;;;;;;5002811;28;20065;-53
2021/12/19 00:23:46;;;;;;;60.25;4.63;;;;;;;;;;5000619;28;20176;-50
2021/12/19 00:26:13;;;;;;;12.40;2.88;;;;;;;;;;5002170;28;20077;-48
2021/12/19 00:28:40;;;;;;;11.50;2.40;;;;;;;;;;5002950;28;20097;-48
2021/12/19 00:31:08;;;;;;;12.70;3.13;;;;;;;;;;5005536;28;20030;-49
2021/12/19 00:33:35;;;;;;;9.82;1.85;;;;;;;;;;4999781;28;20022;-51
2021/12/19 00:36:03;;;;;;;7.78;1.75;;;;;;;;;;4984052;28;20383;-49
2021/12/19 00:38:30;;;;;;;6.20;1.98;;;;;;;;;;5000107;28;20034;-53
2021/12/19 00:40:57;;;;;;;6.88;1.60;;;;;;;;;;4998510;28;20236;-53
2021/12/19 00:43:34;;;;;;;5.90;1.63;;;;;;;;;;4998094;28;20040;-48
2021/12/19 00:46:07;;;;;;;5.20;1.63;;;;;;;;;;5001082;28;20360;-52
2021/12/19 00:48:39;;;;;;;8.10;2.20;;;;;;;;;;4994842;28;20097;-53
2021/12/19 00:51:07;;;;;;;6.68;2.22;;;;;;;;;;4999986;28;20015;-50
2021/12/19 00:53:34;;;;;;;6.53;2.15;;;;;;;;;;4991879;28;20065;-50
2021/12/19 00:56:02;;;;;;;8.55;2.10;;;;;;;;;;4997775;28;20118;-51
2021/12/19 00:58:29;;;;;;;6.47;2.35;;;;;;;;;;5003260;28;20068;-47
2021/12/19 01:00:56;;;;;;;6.10;1.60;;;;;;;;;;5002830;28;20028;-52
2021/12/19 01:03:23;;;;;;;4.63;1.95;;;;;;;;;;5001053;28;20549;-50
2021/12/19 01:05:52;;;;;;;5.07;1.60;;;;;;;;;;4998295;28;20105;-48
2021/12/19 01:08:19;;;;;;;7.30;2.17;;;;;;;;;;4999055;28;20478;-52
2021/12/19 01:10:47;;;;;;;5.43;2.15;;;;;;;;;;4999589;28;20038;-49
2021/12/19 01:13:15;;;;;;;4.43;1.45;;;;;;;;;;5001830;28;20105;-57
2021/12/19 01:15:42;;;;;;;3.85;1.35;;;;;;;;;;5003333;28;20368;-58
2021/12/19 01:18:10;;;;;;;7.28;1.77;;;;;;;;;;5002950;28;20101;-51
2021/12/19 01:20:39;;;;;;;7.63;1.88;;;;;;;;;;4993810;28;20355;-55
2021/12/19 01:23:06;;;;;;;6.18;2.08;;;;;;;;;;5000232;28;20027;-48
2021/12/19 01:25:33;;;;;;;3.67;1.75;;;;;;;;;;5000505;28;20022;-57
2021/12/19 01:28:00;;;;;;;44.50;2.53;;;;;;;;;;5001111;28;20116;-56
2021/12/19 01:30:28;;;;;;;4.43;1.50;;;;;;;;;;5002891;28;20079;-48
2021/12/19 01:32:57;;;;;;;3.80;1.80;;;;;;;;;;4993827;28;20056;-51
2021/12/19 01:35:24;;;;;;;5.10;2.03;;;;;;;;;;5003881;28;20034;-47
2021/12/19 01:37:52;;;;;;;5.72;2.65;;;;;;;;;;4992516;28;21497;-57
2021/12/19 01:40:20;;;;;;;6.57;2.30;;;;;;;;;;5002649;28;20093;-51
2021/12/19 01:42:48;;;;;;;4.70;1.90;;;;;;;;;;4998936;28;20032;-48
2021/12/19 01:45:21;;;;;;;5.60;2.13;;;;;;;;;;5001502;28;20030;-49
2021/12/19 01:47:49;;;;;;;12.32;3.97;;;;;;;;;;5002496;28;20038;-50
2021/12/19 01:50:16;;;;;;;11.38;3.72;;;;;;;;;;4981723;28;20387;-55
2021/12/19 01:52:43;;;;;;;9.55;3.38;;;;;;;;;;4995979;28;20022;-52
2021/12/19 01:55:11;;;;;;;11.05;3.97;;;;;;;;;;4999407;28;20039;-53
2021/12/19 01:57:38;;;;;;;10.77;4.07;;;;;;;;;;5000281;28;20044;-47
2021/12/19 02:00:06;;;;;;;12.55;3.53;;;;;;;;;;4992564;28;20018;-53
2021/12/19 02:02:33;;;;;;;9.75;4.18;;;;;;;;;;5000481;28;20101;-57
2021/12/19 02:05:01;;;;;;;9.65;3.63;;;;;;;;;;5000740;28;20478;-57
2021/12/19 02:07:28;;;;;;;7.85;3.35;;;;;;;;;;4989842;28;20038;-57
2021/12/19 02:09:55;;;;;;;9.90;2.70;;;;;;;;;;4999163;28;20029;-58
2021/12/19 02:12:22;;;;;;;7.00;2.47;;;;;;;;;;4998479;28;20030;-51
2021/12/19 02:14:49;;;;;;;5.43;2.63;;;;;;;;;;4998434;28;20030;-50
2021/12/19 02:17:17;;;;;;;4.68;2.33;;;;;;;;;;4992830;28;20038;-54
2021/12/19 02:19:44;;;;;;;4.38;2.60;;;;;;;;;;4990644;28;20027;-59
2021/12/19 02:22:11;;;;;;;9.07;2.20;;;;;;;;;;4990321;28;20026;-58
2021/12/19 02:24:38;;;;;;;3.35;1.48;;;;;;;;;;4990458;28;20027;-59
2021/12/19 02:27:05;;;;;;;5.45;1.85;;;;;;;;;;4991116;28;20023;-57
2021/12/19 02:29:32;;;;;;;3.78;1.83;;;;;;;;;;4990649;28;20049;-53
2021/12/19 02:32:01;;;;;;;5.07;2.17;;;;;;;;;;4973035;28;20022;-55
2021/12/19 02:34:32;;;;;;;4.07;1.88;;;;;;;;;;4990320;28;20077;-56
2021/12/19 02:37:06;;;;;;;4.35;1.75;;;;;;;;;;4994923;28;20494;-52
2021/12/19 02:40:05;;;;;;;2.70;1.17;;;;;;;;;;4994928;28;20105;-54
2021/12/19 02:48:15;;;;;;;3.38;1.65;;;;;;;;;;4994838;28;20073;-54
2021/12/19 02:50:49;;;;;;;2.83;1.50;;;;;;;;;;4993955;28;20026;-56
2021/12/19 02:53:23;;;;;;;4.55;1.50;;;;;;;;;;4993789;28;20026;-54
2021/12/19 02:55:50;;;;;;;4.10;1.45;;;;;;;;;;4994450;28;20149;-56
2021/12/19 02:58:17;;;;;;;2.50;1.05;;;;;;;;;;4993498;28;20041;-54
2021/12/19 03:00:44;;;;;;;2.35;1.10;;;;;;;;;;4994529;28;20026;-51
2021/12/19 03:03:11;;;;;;;3.03;1.27;;;;;;;;;;4975451;28;20033;-57
2021/12/19 03:05:38;;;;;;;1.83;1.10;;;;;;;;;;4997392;28;20378;-52
2021/12/19 03:08:08;;;;;;;1.95;1.00;;;;;;;;;;5004869;28;20102;-49
2021/12/19 03:13:36;;;;;;;1.42;0.70;;;;;;;;;;4993768;28;20022;-50
2021/12/19 03:18:49;;;;;;;2.97;1.17;;;;;;;;;;4994758;28;20441;-50
2021/12/19 03:21:17;;;;;;;1.98;0.90;;;;;;;;;;4994448;28;20034;-49
2021/12/19 03:23:44;;;;;;;4.65;1.00;;;;;;;;;;4993659;28;20037;-48
2021/12/19 03:26:12;;;;;;;1.58;0.65;;;;;;;;;;4994181;28;20026;-50
2021/12/19 03:28:39;;;;;;;1.30;0.80;;;;;;;;;;4994513;28;20026;-47
2021/12/19 03:31:06;;;;;;;2.15;0.95;;;;;;;;;;4994609;28;20019;-49
2021/12/19 03:33:35;;;;;;;2.53;0.90;;;;;;;;;;4993373;28;20041;-47
2021/12/19 03:36:03;;;;;;;2.20;0.68;;;;;;;;;;4994228;28;20050;-48
2021/12/19 03:38:30;;;;;;;7.18;0.95;;;;;;;;;;4994108;28;20034;-50
2021/12/19 03:41:17;;;;;;;1.92;0.57;;;;;;;;;;4994235;28;20028;-51
2021/12/19 03:43:44;;;;;;;4.35;1.27;;;;;;;;;;4993904;28;20058;-48
2021/12/19 03:46:12;;;;;;;8.50;1.80;;;;;;;;;;4992411;28;20022;-51
2021/12/19 03:48:39;;;;;;;10.52;2.03;;;;;;;;;;4994412;28;20029;-50
2021/12/19 03:51:06;;;;;;;8.43;2.33;;;;;;;;;;4994342;28;20025;-49
2021/12/19 03:53:33;;;;;;;7.88;2.08;;;;;;;;;;4993357;28;20073;-49
2021/12/19 03:56:00;;;;;;;7.68;1.70;;;;;;;;;;4993663;28;20018;-49
2021/12/19 03:58:28;;;;;;;6.68;1.30;;;;;;;;;;4994537;28;20034;-48
2021/12/19 04:00:59;;;;;;;3.30;1.10;;;;;;;;;;4994683;28;20052;-47
2021/12/19 04:03:29;;;;;;;3.42;1.42;;;;;;;;;;4993115;28;20030;-50
2021/12/19 04:05:56;;;;;;;5.20;1.17;;;;;;;;;;4993455;28;20027;-46
2021/12/19 04:08:23;;;;;;;3.20;1.08;;;;;;;;;;4993819;28;20026;-48
2021/12/19 04:10:51;;;;;;;3.92;0.98;;;;;;;;;;4993673;28;20030;-48
2021/12/19 04:13:19;;;;;;;2.92;0.93;;;;;;;;;;4993437;28;20030;-52
2021/12/19 04:15:47;;;;;;;1.25;0.65;;;;;;;;;;4976315;28;20026;-48
2021/12/19 04:18:15;;;;;;;1.50;0.60;;;;;;;;;;4993567;28;20394;-49
2021/12/19 04:20:42;;;;;;;2.35;0.60;;;;;;;;;;4993205;28;20022;-49
2021/12/19 04:23:09;;;;;;;1.35;0.60;;;;;;;;;;4993876;28;20014;-47
2021/12/19 04:25:36;;;;;;;3.20;0.80;;;;;;;;;;4975074;28;20088;-48
2021/12/19 04:28:03;;;;;;;2.35;0.70;;;;;;;;;;4993178;28;20101;-48
2021/12/19 04:30:30;;;;;;;2.05;0.70;;;;;;;;;;4993427;28;20080;-51
2021/12/19 04:33:01;;;;;;;1.85;0.60;;;;;;;;;;4992924;28;20022;-50
2021/12/19 04:35:31;;;;;;;4.28;1.02;;;;;;;;;;4993489;28;20033;-52
2021/12/19 05:15:27;;;;;;;1.77;0.60;;;;;;;;;;4992265;28;20101;-57
2021/12/19 05:17:59;;;;;;;1.58;0.63;;;;;;;;;;4992353;28;20061;-50
2021/12/19 05:20:28;;;;;;;1.30;0.60;;;;;;;;;;4992491;28;20494;-50
2021/12/19 05:23:02;;;;;;;0.98;0.60;;;;;;;;;;4992643;28;20375;-47
2021/12/19 05:25:29;;;;;;;1.73;0.65;;;;;;;;;;4992721;28;20031;-57
2021/12/19 05:27:58;;;;;;;2.83;0.85;;;;;;;;;;4991767;28;20076;-53
2021/12/19 05:30:26;;;;;;;3.53;0.90;;;;;;;;;;4992337;28;20037;-51
2021/12/19 05:32:54;;;;;;;3.65;1.13;;;;;;;;;;4992520;28;20037;-55
2021/12/19 05:36:16;;;;;;;2.83;0.82;;;;;;;;;;4991824;28;20061;-52
2021/12/19 05:46:29;;;;;;;3.72;1.25;;;;;;;;;;4991682;28;20516;-55
2021/12/19 05:48:56;;;;;;;3.03;1.10;;;;;;;;;;4992075;28;20493;-55
2021/12/19 05:51:23;;;;;;;3.20;1.00;;;;;;;;;;4992004;28;20030;-52
2021/12/19 05:53:50;;;;;;;3.08;0.93;;;;;;;;;;4992148;28;20140;-55
2021/12/19 05:56:17;;;;;;;5.20;1.02;;;;;;;;;;4990953;28;20110;-54
2021/12/19 05:58:44;;;;;;;4.35;1.17;;;;;;;;;;4991816;28;20387;-57
2021/12/19 06:01:11;;;;;;;3.60;1.10;;;;;;;;;;4991907;28;20371;-53
2021/12/19 06:03:38;;;;;;;2.92;0.98;;;;;;;;;;4992023;28;20499;-51
2021/12/19 06:06:06;;;;;;;1.90;0.75;;;;;;;;;;4991489;28;20489;-49
2021/12/19 06:08:33;;;;;;;3.55;0.82;;;;;;;;;;4991623;28;20033;-57
2021/12/19 06:11:00;;;;;;;2.13;0.73;;;;;;;;;;4991274;28;20030;-54
2021/12/19 06:13:27;;;;;;;2.10;0.82;;;;;;;;;;4991692;28;20085;-50
2021/12/19 06:15:57;;;;;;;2.58;0.60;;;;;;;;;;4991420;28;20422;-58
2021/12/19 06:18:24;;;;;;;3.58;0.60;;;;;;;;;;4991178;28;20066;-56
2021/12/19 06:20:51;;;;;;;1.35;0.60;;;;;;;;;;4991621;28;20022;-54
2021/12/19 06:23:18;;;;;;;4.22;0.98;;;;;;;;;;4991940;28;20037;-55
2021/12/19 06:25:48;;;;;;;1.88;0.60;;;;;;;;;;4990973;28;20026;-59
2021/12/19 06:28:16;;;;;;;1.35;0.77;;;;;;;;;;4991400;28;20101;-56
2021/12/19 06:30:43;;;;;;;2.53;0.57;;;;;;;;;;4991781;28;20034;-49
2021/12/19 06:33:11;;;;;;;2.60;0.80;;;;;;;;;;4973907;28;20030;-50
2021/12/19 06:35:38;;;;;;;1.55;0.60;;;;;;;;;;4974044;28;20391;-55
2021/12/19 06:38:06;;;;;;;1.33;0.60;;;;;;;;;;4990781;28;20062;-49
2021/12/19 06:40:33;;;;;;;2.25;0.70;;;;;;;;;;4991727;28;20030;-56
2021/12/19 06:43:00;;;;;;;3.25;1.30;;;;;;;;;;4991703;28;20531;-57
2021/12/19 06:45:28;;;;;;;2.20;0.80;;;;;;;;;;4991427;28;20510;-52
2021/12/19 06:47:55;;;;;;;1.75;0.68;;;;;;;;;;4990842;28;20026;-52
2021/12/19 06:50:22;;;;;;;2.95;0.80;;;;;;;;;;4991453;28;20494;-56
2021/12/19 06:52:49;;;;;;;4.30;0.93;;;;;;;;;;4991261;28;20022;-54
2021/12/19 06:55:17;;;;;;;4.93;1.15;;;;;;;;;;4991567;28;20104;-54
2021/12/19 06:57:44;;;;;;;4.68;1.13;;;;;;;;;;4990293;28;20126;-53
2021/12/19 07:00:12;;;;;;;5.68;1.20;;;;;;;;;;4991057;28;20482;-55
2021/12/19 07:02:40;;;;;;;4.95;1.48;;;;;;;;;;4991561;28;20027;-52
2021/12/19 07:05:07;;;;;;;3.00;1.02;;;;;;;;;;4973974;28;20428;-58
2021/12/19 07:07:34;;;;;;;5.53;1.05;;;;;;;;;;4990386;28;20031;-54
2021/12/19 07:10:01;;;;;;;3.88;1.00;;;;;;;;;;4991372;28;20026;-54
2021/12/19 07:12:28;;;;;;;5.13;1.17;;;;;;;;;;4991252;28;20057;-55
2021/12/19 07:14:55;;;;;;;4.70;1.40;;;;;;;;;;4990698;28;20027;-52
2021/12/19 07:17:22;;;;;;;6.00;1.13;;;;;;;;;;4991049;28;20066;-56
2021/12/19 07:19:49;;;;;;;4.43;1.33;;;;;;;;;;4990968;28;20023;-54
2021/12/19 07:22:17;;;;;;;5.60;1.20;;;;;;;;;;4992764;28;20022;-52
2021/12/19 07:24:45;;;;;;;2.28;0.70;;;;;;;;;;4994565;28;20038;-52
2021/12/19 07:27:15;;;;;;;2.45;1.00;;;;;;;;;;4994399;28;20532;-51
2021/12/19 07:29:43;;;;;;;5.90;1.10;;;;;;;;;;4994327;28;20018;-53
2021/12/19 07:32:13;;;;;;;6.18;1.10;;;;;;;;;;4994899;28;20038;-50
2021/12/19 07:34:42;;;;;;;4.60;1.00;;;;;;;;;;4994979;28;20029;-53
2021/12/19 07:37:09;;;;;;;4.80;1.05;;;;;;;;;;4993854;28;20437;-53
2021/12/19 07:42:07;;;;;;;5.03;0.98;;;;;;;;;;4994599;28;20023;-54
2021/12/19 07:44:35;;;;;;;5.32;1.08;;;;;;;;;;4994451;28;20027;-51
2021/12/19 07:47:02;;;;;;;2.65;0.82;;;;;;;;;;4993903;28;20027;-54
2021/12/19 07:49:29;;;;;;;2.75;0.77;;;;;;;;;;4997618;28;20031;-49
2021/12/19 07:51:56;;;;;;;2.35;0.75;;;;;;;;;;4994217;28;20073;-53
2021/12/19 07:54:23;;;;;;;2.60;0.77;;;;;;;;;;4993775;28;20093;-51
2021/12/19 07:56:54;;;;;;;7.47;1.02;;;;;;;;;;4994267;28;20032;-53
2021/12/19 07:59:21;;;;;;;4.72;0.93;;;;;;;;;;4993254;28;20426;-52
2021/12/19 08:01:48;;;;;;;2.17;0.80;;;;;;;;;;4994139;28;20033;-51
2021/12/19 08:04:15;;;;;;;3.58;1.00;;;;;;;;;;4976248;28;20038;-49
2021/12/19 08:06:43;;;;;;;1.48;0.80;;;;;;;;;;4993882;28;20490;-52
2021/12/19 08:09:20;;;;;;;2.63;0.82;;;;;;;;;;4993491;28;20032;-50
2021/12/19 08:11:47;;;;;;;4.07;1.05;;;;;;;;;;4993952;28;20038;-49
2021/12/19 08:14:15;;;;;;;4.35;0.70;;;;;;;;;;4994153;28;20084;-50
2021/12/19 08:16:44;;;;;;;3.33;1.02;;;;;;;;;;4993668;28;20049;-56
2021/12/19 08:19:11;;;;;;;4.53;0.95;;;;;;;;;;4992840;28;20022;-56
2021/12/19 08:21:38;;;;;;;4.47;0.90;;;;;;;;;;4993960;28;20023;-52
2021/12/19 08:24:10;;;;;;;6.65;0.90;;;;;;;;;;4993712;28;20076;-54
2021/12/19 08:26:39;;;;;;;4.90;0.95;;;;;;;;;;4993596;28;20383;-53
2021/12/19 08:29:06;;;;;;;3.03;0.85;;;;;;;;;;4992783;28;20030;-50
2021/12/19 08:31:33;;;;;;;4.75;1.00;;;;;;;;;;4993546;28;20031;-53
2021/12/19 08:34:00;;;;;;;3.67;1.00;;;;;;;;;;4992900;28;20102;-52
2021/12/19 08:36:28;;;;;;;5.03;1.08;;;;;;;;;;4993307;28;20026;-46
2021/12/19 08:38:55;;;;;;;4.38;1.05;;;;;;;;;;4993235;28;20034;-54
2021/12/19 08:41:22;;;;;;;7.30;1.33;;;;;;;;;;4993107;28;20030;-55
2021/12/19 08:43:49;;;;;;;6.40;1.00;;;;;;;;;;4993056;28;20627;-49
2021/12/19 08:46:16;;;;;;;5.82;1.20;;;;;;;;;;4993122;28;20375;-52
2021/12/19 08:48:44;;;;;;;2.47;0.75;;;;;;;;;;4993063;28;20026;-53
2021/12/19 08:51:11;;;;;;;3.67;0.68;;;;;;;;;;4992248;28;20390;-49
2021/12/19 08:53:38;;;;;;;4.30;1.02;;;;;;;;;;4992918;28;20093;-53
2021/12/19 08:56:05;;;;;;;8.57;1.23;;;;;;;;;;4993168;28;20026;-49
2021/12/19 08:58:32;;;;;;;6.47;1.00;;;;;;;;;;4992489;28;20046;-53
2021/12/19 09:01:01;;;;;;;4.57;1.00;;;;;;;;;;4992557;28;20022;-54
2021/12/19 09:03:32;;;;;;;3.72;0.82;;;;;;;;;;4992802;28;20061;-51
2021/12/19 09:05:59;;;;;;;4.20;1.10;;;;;;;;;;4992531;28;20389;-48
2021/12/19 09:08:26;;;;;;;3.63;0.70;;;;;;;;;;4992062;28;20039;-52
2021/12/19 09:10:54;;;;;;;7.40;1.23;;;;;;;;;;4992077;28;20031;-52
2021/12/19 09:13:21;;;;;;;3.17;0.90;;;;;;;;;;4992823;28;20030;-51
2021/12/19 09:15:49;;;;;;;4.15;1.15;;;;;;;;;;4992830;28;20019;-56
2021/12/19 09:18:16;;;;;;;3.78;1.10;;;;;;;;;;4992799;28;20494;-50
2021/12/19 09:20:43;;;;;;;2.25;0.60;;;;;;;;;;4991554;28;20105;-47
2021/12/19 09:23:11;;;;;;;3.28;0.88;;;;;;;;;;4992576;28;20069;-50
2021/12/19 09:25:38;;;;;;;3.15;0.90;;;;;;;;;;4992702;28;20026;-51
2021/12/19 09:28:06;;;;;;;2.13;0.60;;;;;;;;;;4992133;28;20042;-49
2021/12/19 09:30:33;;;;;;;4.38;0.93;;;;;;;;;;4991464;28;20500;-54
2021/12/19 09:33:00;;;;;;;4.25;0.80;;;;;;;;;;4975135;28;20022;-51
2021/12/19 09:35:27;;;;;;;1.67;0.50;;;;;;;;;;4974242;28;20037;-51
2021/12/19 09:37:54;;;;;;;2.45;0.80;;;;;;;;;;4991812;28;20034;-53
2021/12/19 09:40:25;;;;;;;5.60;0.77;;;;;;;;;;4992130;28;20034;-53
2021/12/19 09:43:00;;;;;;;2.55;0.90;;;;;;;;;;4992131;28;20585;-49
2021/12/19 09:45:28;;;;;;;2.65;0.63;;;;;;;;;;4991407;28;20509;-51
2021/12/19 09:47:55;;;;;;;2.67;0.82;;;;;;;;;;4992040;28;20023;-52
2021/12/19 09:50:22;;;;;;;2.63;1.00;;;;;;;;;;4990570;28;20015;-55
2021/12/19 09:52:52;;;;;;;5.20;0.80;;;;;;;;;;4974415;28;20033;-49
2021/12/19 09:55:21;;;;;;;3.45;0.60;;;;;;;;;;4991885;28;20061;-51
2021/12/19 09:57:53;;;;;;;3.60;0.80;;;;;;;;;;4991965;28;20037;-48
2021/12/19 10:00:21;;;;;;;1.17;0.60;;;;;;;;;;4991803;28;20022;-50
2021/12/19 10:02:48;;;;;;;2.83;0.50;;;;;;;;;;4991730;28;20261;-56
2021/12/19 10:05:16;;;;;;;2.38;0.73;;;;;;;;;;4991728;28;20014;-48
2021/12/19 10:07:47;;;;;;;1.92;0.73;;;;;;;;;;4991549;28;20066;-49
2021/12/19 10:10:24;;;;;;;3.78;1.10;;;;;;;;;;4991642;28;20049;-59
2021/12/19 10:12:57;;;;;;;2.92;1.08;;;;;;;;;;4973818;28;20608;-59
2021/12/19 10:15:35;;;;;;;4.88;0.98;;;;;;;;;;4991884;28;20026;-53
2021/12/19 10:18:01;;;;;;;5.75;0.95;;;;;;;;;;4991645;28;20493;-59
2021/12/19 10:20:40;;;;;;;1.30;0.60;;;;;;;;;;4990986;28;20026;-55
2021/12/19 10:23:27;;;;;;;4.88;1.42;;;;;;;;;;4991448;28;20108;-59
2021/12/19 10:25:58;;;;;;;2.17;0.68;;;;;;;;;;4991568;28;20381;-54
2021/12/19 10:28:26;;;;;;;2.70;0.93;;;;;;;;;;4991299;28;20415;-57
2021/12/19 10:30:53;;;;;;;2.17;0.80;;;;;;;;;;4991178;28;20030;-59
2021/12/19 10:33:24;;;;;;;3.55;0.88;;;;;;;;;;4991140;28;20026;-59
2021/12/19 10:35:55;;;;;;;1.98;0.52;;;;;;;;;;4991653;28;20451;-55
2021/12/19 10:38:25;;;;;;;2.88;1.00;;;;;;;;;;4991168;28;20513;-57
2021/12/19 10:40:54;;;;;;;2.15;0.90;;;;;;;;;;4991520;28;20046;-50
2021/12/19 10:43:23;;;;;;;3.38;1.17;;;;;;;;;;4973820;28;20034;-59
2021/12/19 10:45:52;;;;;;;3.42;0.98;;;;;;;;;;4991451;28;20383;-54
2021/12/19 10:48:23;;;;;;;2.30;1.00;;;;;;;;;;4991617;28;20038;-52
2021/12/19 10:50:52;;;;;;;3.78;1.25;;;;;;;;;;4990514;28;20378;-56
2021/12/19 10:53:20;;;;;;;1.90;0.88;;;;;;;;;;4991220;28;20110;-54
2021/12/19 10:55:49;;;;;;;6.35;1.00;;;;;;;;;;4992556;28;20126;-54
2021/12/19 10:58:23;;;;;;;1.45;0.70;;;;;;;;;;4995329;28;20046;-55
2021/12/19 11:01:03;;;;;;;2.30;0.80;;;;;;;;;;4994682;28;20129;-54
2021/12/19 11:03:41;;;;;;;2.58;0.90;;;;;;;;;;4994567;28;20045;-51
2021/12/19 11:06:15;;;;;;;4.80;1.40;;;;;;;;;;4994991;28;20022;-57
2021/12/19 11:08:43;;;;;;;6.47;1.13;;;;;;;;;;4994959;28;20030;-56
2021/12/19 11:11:11;;;;;;;2.78;1.08;;;;;;;;;;4994674;28;20045;-50
2021/12/19 11:13:39;;;;;;;3.33;1.00;;;;;;;;;;4994685;28;20027;-54
2021/12/19 11:16:06;;;;;;;2.38;1.02;;;;;;;;;;4994991;28;20018;-55
2021/12/19 11:18:33;;;;;;;3.28;1.20;;;;;;;;;;4995142;28;20125;-49
2021/12/19 11:21:00;;;;;;;2.13;1.10;;;;;;;;;;4994796;28;20018;-46
2021/12/19 11:23:27;;;;;;;2.03;0.85;;;;;;;;;;4994502;28;20022;-47
2021/12/19 11:25:55;;;;;;;4.60;0.85;;;;;;;;;;4994073;28;20683;-48
2021/12/19 11:28:23;;;;;;;6.53;1.85;;;;;;;;;;4995647;28;20474;-47
2021/12/19 11:30:50;;;;;;;3.10;1.08;;;;;;;;;;5001947;28;20031;-50
2021/12/19 11:33:17;;;;;;;4.03;1.45;;;;;;;;;;4993583;28;20088;-53
2021/12/19 11:35:48;;;;;;;5.13;1.60;;;;;;;;;;4996655;28;20029;-49
2021/12/19 11:38:18;;;;;;;3.45;1.10;;;;;;;;;;4993108;28;20026;-47
2021/12/19 11:40:45;;;;;;;4.55;1.13;;;;;;;;;;4975648;28;20351;-53
2021/12/19 11:43:13;;;;;;;2.50;1.33;;;;;;;;;;4993332;28;20085;-52
2021/12/19 11:45:45;;;;;;;2.45;1.05;;;;;;;;;;4993196;28;20101;-52
2021/12/19 11:48:24;;;;;;;3.78;1.55;;;;;;;;;;4994217;28;20022;-51
2021/12/19 11:51:05;;;;;;;5.20;0.93;;;;;;;;;;4993979;28;20541;-51
2021/12/19 11:53:32;;;;;;;3.53;1.48;;;;;;;;;;4991668;28;20036;-51
2021/12/19 11:56:06;;;;;;;3.30;1.38;;;;;;;;;;4993263;28;20545;-52
2021/12/19 11:58:42;;;;;;;2.72;1.10;;;;;;;;;;5001264;28;20050;-46
2021/12/19 12:01:11;;;;;;;2.72;1.15;;;;;;;;;;4998233;28;20455;-49
2021/12/19 12:03:45;;;;;;;2.53;0.98;;;;;;;;;;4997332;28;20050;-52
2021/12/19 12:06:16;;;;;;;2.75;1.17;;;;;;;;;;4998197;28;20368;-51
2021/12/19 12:09:01;;;;;;;5.55;1.10;;;;;;;;;;4992812;28;20034;-53
2021/12/19 12:11:29;;;;;;;4.82;1.15;;;;;;;;;;4993022;28;20034;-51
2021/12/19 12:14:15;;;;;;;1.83;1.05;;;;;;;;;;4992177;28;20100;-54
2021/12/19 12:16:51;;;;;;;6.78;0.95;;;;;;;;;;4993563;28;20092;-48
2021/12/19 12:19:37;;;;;;;2.03;0.93;;;;;;;;;;4993200;28;20510;-53
2021/12/19 12:22:26;;;;;;;7.07;1.02;;;;;;;;;;4992099;28;20026;-48
2021/12/19 12:25:12;;;;;;;2.88;1.10;;;;;;;;;;5010747;28;20153;-49
2021/12/19 12:27:40;;;;;;;2.90;1.08;;;;;;;;;;5012247;28;20049;-54
2021/12/19 12:30:09;;;;;;;1.88;0.88;;;;;;;;;;4993503;28;20022;-51
2021/12/19 12:32:37;;;;;;;4.25;1.38;;;;;;;;;;4992542;28;20038;-51
2021/12/19 12:35:04;;;;;;;3.17;0.90;;;;;;;;;;4992167;28;20038;-48
2021/12/19 12:37:33;;;;;;;4.05;1.42;;;;;;;;;;4992320;28;20034;-50
2021/12/19 12:40:16;;;;;;;3.75;1.10;;;;;;;;;;4992525;28;20018;-53
2021/12/19 12:43:00;;;;;;;2.80;0.90;;;;;;;;;;4993476;28;20088;-50
2021/12/19 12:45:28;;;;;;;3.03;1.00;;;;;;;;;;4993111;28;20441;-48
2021/12/19 12:47:55;;;;;;;5.95;0.98;;;;;;;;;;4993232;28;20591;-49
2021/12/19 12:50:23;;;;;;;2.65;1.33;;;;;;;;;;4993168;28;20100;-49
2021/12/19 12:52:50;;;;;;;4.88;1.00;;;;;;;;;;4992503;28;20046;-52
2021/12/19 12:55:17;;;;;;;1.80;0.90;;;;;;;;;;4992634;28;20104;-53
2021/12/19 12:57:45;;;;;;;2.67;1.00;;;;;;;;;;4992941;28;20108;-52
2021/12/19 13:00:22;;;;;;;1.58;0.80;;;;;;;;;;4993178;28;20459;-54
2021/12/19 13:03:08;;;;;;;4.43;1.15;;;;;;;;;;4992716;28;20034;-52
2021/12/19 13:05:35;;;;;;;2.45;0.80;;;;;;;;;;4992490;28;20026;-54
2021/12/19 13:08:02;;;;;;;1.35;0.70;;;;;;;;;;4992799;28;20022;-53
2021/12/19 13:10:29;;;;;;;1.30;0.60;;;;;;;;;;4992730;28;20022;-51
2021/12/19 13:12:57;;;;;;;4.53;1.08;;;;;;;;;;4992541;28;20061;-50
2021/12/19 13:15:23;;;;;;;2.90;1.05;;;;;;;;;;4992191;28;20022;-54
2021/12/19 13:17:52;;;;;;;1.63;0.90;;;;;;;;;;4992678;28;20030;-53
2021/12/19 13:20:24;;;;;;;2.30;1.00;;;;;;;;;;4992558;28;20041;-54
2021/12/19 13:22:53;;;;;;;3.10;1.02;;;;;;;;;;4992255;28;20030;-50
2021/12/19 13:25:28;;;;;;;1.85;0.88;;;;;;;;;;4992528;28;20034;-50
2021/12/19 13:27:57;;;;;;;2.25;0.90;;;;;;;;;;4992329;28;20041;-57
2021/12/19 13:30:25;;;;;;;2.00;0.80;;;;;;;;;;4992506;28;20026;-58
2021/12/19 13:32:54;;;;;;;4.03;1.48;;;;;;;;;;4992240;28;20033;-55
2021/12/19 13:35:28;;;;;;;2.75;1.15;;;;;;;;;;4991317;28;20030;-54
2021/12/19 13:38:00;;;;;;;2.20;0.70;;;;;;;;;;4992266;28;20145;-58
2021/12/19 13:40:29;;;;;;;1.95;0.80;;;;;;;;;;4991841;28;20022;-54
2021/12/19 13:42:58;;;;;;;1.70;0.73;;;;;;;;;;4991814;28;20030;-57
2021/12/19 13:45:27;;;;;;;1.42;0.73;;;;;;;;;;4992144;28;20479;-48
2021/12/19 13:47:55;;;;;;;2.83;0.95;;;;;;;;;;4992236;28;20034;-57
2021/12/19 13:50:22;;;;;;;2.08;0.90;;;;;;;;;;4991743;28;20014;-49
2021/12/19 13:52:49;;;;;;;3.95;1.40;;;;;;;;;;4991767;28;20026;-57
2021/12/19 13:55:16;;;;;;;2.65;0.85;;;;;;;;;;4991403;28;20052;-53
2021/12/19 13:57:45;;;;;;;2.15;0.80;;;;;;;;;;4991766;28;20042;-57
2021/12/19 14:00:27;;;;;;;2.17;0.80;;;;;;;;;;4974873;28;20031;-56
2021/12/19 14:02:54;;;;;;;1.63;0.70;;;;;;;;;;4991717;28;20041;-58
2021/12/19 14:05:50;;;;;;;4.60;0.80;;;;;;;;;;4991589;28;20038;-55
2021/12/19 14:08:18;;;;;;;4.50;1.02;;;;;;;;;;4979574;28;20054;-55
2021/12/19 14:10:45;;;;;;;3.22;1.00;;;;;;;;;;4974333;28;20029;-54
2021/12/19 14:13:30;;;;;;;0.88;0.68;;;;;;;;;;4991730;28;20028;-51
2021/12/19 14:15:57;;;;;;;2.40;0.90;;;;;;;;;;4991224;28;20041;-52
2021/12/19 14:18:30;;;;;;;1.88;0.90;;;;;;;;;;4991782;28;20098;-55
2021/12/19 14:20:56;;;;;;;;;;;;;;;;;;4992456;28;20022;-53
2021/12/19 14:23:23;;;;;;;2.88;1.00;;;;;;;;;;4990705;28;19910;-56
2021/12/19 14:25:51;;;;;;;2.03;0.77;;;;;;;;;;4991853;28;20018;-47
2021/12/19 14:28:22;;;;;;;3.30;0.80;;;;;;;;;;4991925;28;20034;-53
2021/12/19 14:31:06;;;;;;;2.42;1.10;;;;;;;;;;4991059;28;20026;-56
2021/12/19 14:33:38;;;;;;;1.45;0.80;;;;;;;;;;4991728;28;20026;-54
2021/12/19 14:36:10;;;;;;;2.25;0.90;;;;;;;;;;4990863;28;20526;-54
2021/12/19 14:38:38;;;;;;;2.20;0.90;;;;;;;;;;4991319;28;20068;-56
2021/12/19 14:41:07;;;;;;;2.22;0.80;;;;;;;;;;4991674;28;20029;-52
2021/12/19 14:43:41;;;;;;;2.22;0.80;;;;;;;;;;4991226;28;20030;-55
2021/12/19 14:46:08;;;;;;;2.10;0.93;;;;;;;;;;4991316;28;20037;-55
2021/12/19 14:48:35;;;;;;;2.67;0.90;;;;;;;;;;4973997;28;20102;-52
2021/12/19 14:51:08;;;;;;;3.15;0.80;;;;;;;;;;4991695;28;20026;-53
2021/12/19 14:53:36;;;;;;;1.58;0.80;;;;;;;;;;4990785;28;20049;-55
2021/12/19 14:56:09;;;;;;;2.28;0.80;;;;;;;;;;4989310;28;20035;-57
2021/12/19 14:58:38;;;;;;;3.83;0.90;;;;;;;;;;4991294;28;20070;-54
2021/12/19 15:01:09;;;;;;;2.58;0.90;;;;;;;;;;4991435;28;20045;-47
2021/12/19 15:03:38;;;;;;;1.93;0.80;;;;;;;;;;4990650;28;20030;-49
2021/12/19 15:06:11;;;;;;;1.42;0.82;;;;;;;;;;4973463;28;20057;-55
2021/12/19 15:11:43;;;;;;;2.90;0.85;;;;;;;;;;4989285;28;20089;-54
2021/12/19 15:14:11;;;;;;;4.60;1.20;;;;;;;;;;4990691;28;20781;-53
2021/12/19 15:16:38;;;;;;;2.17;1.20;;;;;;;;;;4973692;28;20549;-56
2021/12/19 15:19:09;;;;;;;1.90;0.90;;;;;;;;;;4991174;28;20478;-52
2021/12/19 15:21:37;;;;;;;1.80;0.80;;;;;;;;;;4991294;28;20054;-57
2021/12/19 15:24:04;;;;;;;3.42;0.90;;;;;;;;;;4975511;28;20031;-55
2021/12/19 15:26:32;;;;;;;2.03;0.90;;;;;;;;;;4990559;28;20030;-52
2021/12/19 15:28:59;;;;;;;3.47;1.02;;;;;;;;;;4991469;28;20077;-51
2021/12/19 15:31:26;;;;;;;1.60;0.90;;;;;;;;;;4991367;28;20034;-53
2021/12/19 15:33:56;;;;;;;1.73;0.93;;;;;;;;;;4991018;28;20026;-54
2021/12/19 15:36:23;;;;;;;1.85;0.82;;;;;;;;;;4990340;28;20462;-53
2021/12/19 15:38:50;;;;;;;2.72;1.02;;;;;;;;;;4990948;28;20446;-52
2021/12/19 15:41:17;;;;;;;3.90;1.00;;;;;;;;;;4990272;28;20532;-52
2021/12/19 15:43:44;;;;;;;1.77;1.00;;;;;;;;;;4993285;28;20034;-53
2021/12/19 15:46:12;;;;;;;2.28;1.10;;;;;;;;;;4993838;28;20113;-52
2021/12/19 15:48:39;;;;;;;2.05;0.90;;;;;;;;;;4994164;28;20030;-53
2021/12/19 15:51:06;;;;;;;1.85;0.90;;;;;;;;;;4993971;28;20026;-52
2021/12/19 15:53:33;;;;;;;2.97;1.10;;;;;;;;;;4993140;28;20101;-52
2021/12/19 15:56:00;;;;;;;2.15;1.20;;;;;;;;;;4994429;28;20395;-52
2021/12/19 15:58:27;;;;;;;1.98;1.17;;;;;;;;;;4993741;28;20457;-52
2021/12/19 16:00:54;;;;;;;1.58;1.20;;;;;;;;;;4994319;28;20471;-50
2021/12/19 16:03:21;;;;;;;2.95;1.02;;;;;;;;;;4994150;28;20062;-49